Time;durP1;ratioP1;P1;durP2;ratioP2;P2;SDS_P1;SDS_P2;PMS_P1;PMS_P2;Temp;Humidity;BMP_temperature;BMP_pressure;BME280_temperature;BME280_humidity;BME280_pressure;Samples;Min_cycle;Max_cycle;Signal;HPM_P1;HPM_P2
2021/11/10 00:01:39;;;;;;;24.67;6.50;;;;;;;;;;5069627;28;20028;-61
2021/11/10 00:04:04;;;;;;;15.98;6.45;;;;;;;;;;5052003;28;20739;-61
2021/11/10 00:06:34;;;;;;;20.52;6.72;;;;;;;;;;5056515;28;20032;-62
2021/11/10 00:09:01;;;;;;;21.77;6.40;;;;;;;;;;5056673;28;20032;-60
2021/11/10 00:11:26;;;;;;;20.08;6.25;;;;;;;;;;5055705;28;22252;-60
2021/11/10 00:13:54;;;;;;;21.48;6.80;;;;;;;;;;5061616;28;20038;-61
2021/11/10 00:16:22;;;;;;;24.83;6.57;;;;;;;;;;5055647;28;20038;-62
2021/11/10 00:18:51;;;;;;;29.42;6.60;;;;;;;;;;5044749;28;20581;-61
2021/11/10 00:21:22;;;;;;;25.67;7.60;;;;;;;;;;5039942;28;20047;-61
2021/11/10 00:23:50;;;;;;;15.95;6.38;;;;;;;;;;5069931;28;20089;-61
2021/11/10 00:26:18;;;;;;;25.20;5.90;;;;;;;;;;5039183;28;20869;-62
2021/11/10 00:28:46;;;;;;;21.52;7.05;;;;;;;;;;5041009;28;20029;-60
2021/11/10 00:31:16;;;;;;;24.77;6.30;;;;;;;;;;5061552;28;20040;-62
2021/11/10 00:33:42;;;;;;;20.40;6.53;;;;;;;;;;5052650;28;20657;-61
2021/11/10 00:36:10;;;;;;;31.85;6.53;;;;;;;;;;5056172;28;20081;-62
2021/11/10 00:38:36;;;;;;;25.80;7.35;;;;;;;;;;5054181;28;20020;-60
2021/11/10 00:41:06;;;;;;;25.63;7.30;;;;;;;;;;5052308;28;20158;-62
2021/11/10 00:43:34;;;;;;;15.65;6.78;;;;;;;;;;5054621;28;20040;-61
2021/11/10 00:46:02;;;;;;;25.20;6.70;;;;;;;;;;5053985;28;20478;-59
2021/11/10 00:48:30;;;;;;;28.15;8.35;;;;;;;;;;5054618;28;20128;-61
2021/11/10 00:50:55;;;;;;;23.75;7.43;;;;;;;;;;5053622;28;20037;-61
2021/11/10 00:53:26;;;;;;;27.65;7.63;;;;;;;;;;5035281;28;20048;-61
2021/11/10 00:55:53;;;;;;;26.92;7.57;;;;;;;;;;5041157;28;20562;-61
2021/11/10 00:58:21;;;;;;;28.05;7.60;;;;;;;;;;5054596;28;20028;-61
2021/11/10 01:00:47;;;;;;;29.92;8.00;;;;;;;;;;5055595;28;20494;-61
2021/11/10 01:03:15;;;;;;;20.02;7.57;;;;;;;;;;5051488;28;20196;-61
2021/11/10 01:05:42;;;;;;;23.30;8.27;;;;;;;;;;5056123;28;20028;-61
2021/11/10 01:08:13;;;;;;;32.63;7.45;;;;;;;;;;5061392;28;20036;-61
2021/11/10 01:10:41;;;;;;;24.63;7.60;;;;;;;;;;5043922;28;20056;-61
2021/11/10 01:13:09;;;;;;;25.10;7.75;;;;;;;;;;5043859;28;20173;-60
2021/11/10 01:15:40;;;;;;;29.17;7.88;;;;;;;;;;5023901;28;20032;-60
2021/11/10 01:18:05;;;;;;;31.35;8.23;;;;;;;;;;5060053;28;20044;-60
2021/11/10 01:20:33;;;;;;;30.00;7.57;;;;;;;;;;5053836;28;20039;-61
2021/11/10 01:22:59;;;;;;;30.05;9.05;;;;;;;;;;5041000;28;20036;-62
2021/11/10 01:25:25;;;;;;;22.73;8.30;;;;;;;;;;5052189;28;20082;-61
2021/11/10 01:27:50;;;;;;;36.42;9.02;;;;;;;;;;5051672;28;20101;-60
2021/11/10 01:30:18;;;;;;;32.92;9.50;;;;;;;;;;5054593;28;20033;-61
2021/11/10 01:32:44;;;;;;;30.65;8.40;;;;;;;;;;5053974;28;20794;-59
2021/11/10 01:35:10;;;;;;;39.65;10.18;;;;;;;;;;5054748;28;20039;-61
2021/11/10 01:37:37;;;;;;;31.17;9.60;;;;;;;;;;5054663;28;20048;-62
2021/11/10 01:40:04;;;;;;;32.05;10.40;;;;;;;;;;5041152;28;20115;-59
2021/11/10 01:42:30;;;;;;;27.95;10.00;;;;;;;;;;5055970;28;20060;-60
2021/11/10 01:44:56;;;;;;;43.67;10.68;;;;;;;;;;5059171;28;20036;-61
2021/11/10 01:47:24;;;;;;;34.78;11.65;;;;;;;;;;5055672;28;20035;-59
2021/11/10 01:49:50;;;;;;;37.05;10.07;;;;;;;;;;5043576;28;20032;-60
2021/11/10 01:52:18;;;;;;;32.60;11.20;;;;;;;;;;5059724;28;20086;-60
2021/11/10 01:54:51;;;;;;;25.92;10.40;;;;;;;;;;5056947;28;20045;-59
2021/11/10 01:57:19;;;;;;;38.88;11.48;;;;;;;;;;5057812;28;20051;-59
2021/11/10 01:59:46;;;;;;;31.38;10.82;;;;;;;;;;5053772;28;20280;-60
2021/11/10 02:02:24;;;;;;;31.05;10.48;;;;;;;;;;5055519;28;20035;-59
2021/11/10 02:04:50;;;;;;;39.22;10.77;;;;;;;;;;5058109;28;20040;-58
2021/11/10 02:07:17;;;;;;;35.47;11.38;;;;;;;;;;5056158;28;20064;-60
2021/11/10 02:09:46;;;;;;;35.38;12.05;;;;;;;;;;5056432;28;20047;-59
2021/11/10 02:12:11;;;;;;;51.28;11.50;;;;;;;;;;5058627;28;20288;-60
2021/11/10 02:14:37;;;;;;;31.33;11.50;;;;;;;;;;5054809;28;20111;-59
2021/11/10 02:17:04;;;;;;;34.72;11.60;;;;;;;;;;5057124;28;20119;-60
2021/11/10 02:19:30;;;;;;;28.98;11.88;;;;;;;;;;5061184;28;22098;-60
2021/11/10 02:21:58;;;;;;;34.08;12.63;;;;;;;;;;5040349;28;20036;-58
2021/11/10 02:24:27;;;;;;;38.15;11.60;;;;;;;;;;5056687;28;20067;-60
2021/11/10 02:26:55;;;;;;;38.65;12.57;;;;;;;;;;5064400;28;20123;-59
2021/11/10 02:29:22;;;;;;;31.27;11.15;;;;;;;;;;5055630;28;20048;-59
2021/11/10 02:31:48;;;;;;;29.77;11.88;;;;;;;;;;5057830;28;20390;-60
2021/11/10 02:34:14;;;;;;;35.78;11.48;;;;;;;;;;5054447;28;20115;-59
2021/11/10 02:36:42;;;;;;;47.88;12.65;;;;;;;;;;5073244;28;20050;-60
2021/11/10 02:39:17;;;;;;;31.52;12.02;;;;;;;;;;5053625;28;20086;-60
2021/11/10 02:41:51;;;;;;;33.45;12.85;;;;;;;;;;5058436;28;20132;-59
2021/11/10 02:44:22;;;;;;;36.60;11.43;;;;;;;;;;5054490;28;20149;-59
2021/11/10 02:46:50;;;;;;;42.83;12.18;;;;;;;;;;5057634;28;20104;-60
2021/11/10 02:49:21;;;;;;;28.80;12.25;;;;;;;;;;5056812;28;20036;-60
2021/11/10 02:51:56;;;;;;;35.83;12.70;;;;;;;;;;5053614;28;20036;-60
2021/11/10 02:54:21;;;;;;;36.92;12.60;;;;;;;;;;5054210;28;20048;-59
2021/11/10 02:56:49;;;;;;;38.42;14.13;;;;;;;;;;5056740;28;20497;-59
2021/11/10 02:59:17;;;;;;;35.70;14.05;;;;;;;;;;5053051;28;20424;-60
2021/11/10 03:01:42;;;;;;;31.85;12.52;;;;;;;;;;5058272;28;20108;-61
2021/11/10 03:04:22;;;;;;;40.45;12.75;;;;;;;;;;5043484;28;20170;-61
2021/11/10 03:06:49;;;;;;;42.08;13.02;;;;;;;;;;5060895;28;20028;-60
2021/11/10 03:09:15;;;;;;;42.03;13.63;;;;;;;;;;5057066;28;20034;-61
2021/11/10 03:11:41;;;;;;;34.92;12.68;;;;;;;;;;5057865;28;20028;-59
2021/11/10 03:14:07;;;;;;;32.05;13.98;;;;;;;;;;5060915;28;20075;-61
2021/11/10 03:16:34;;;;;;;35.72;12.75;;;;;;;;;;5064091;28;20119;-60
2021/11/10 03:19:02;;;;;;;33.20;14.98;;;;;;;;;;5051653;28;20037;-60
2021/11/10 03:21:33;;;;;;;37.92;13.48;;;;;;;;;;5055631;28;20028;-59
2021/11/10 03:23:58;;;;;;;39.42;13.70;;;;;;;;;;5053981;28;20043;-60
2021/11/10 03:26:24;;;;;;;35.95;13.48;;;;;;;;;;5063594;28;20064;-64
2021/11/10 03:28:56;;;;;;;50.70;15.32;;;;;;;;;;5028554;28;20036;-60
2021/11/10 03:31:24;;;;;;;33.92;13.35;;;;;;;;;;5056530;28;20032;-59
2021/11/10 03:33:50;;;;;;;41.03;16.33;;;;;;;;;;5042596;28;20113;-61
2021/11/10 03:36:15;;;;;;;42.40;15.23;;;;;;;;;;5056949;28;20756;-60
2021/11/10 03:38:41;;;;;;;38.38;15.50;;;;;;;;;;5061820;28;20759;-59
2021/11/10 03:41:09;;;;;;;38.15;14.45;;;;;;;;;;5054360;28;20024;-60
2021/11/10 03:43:35;;;;;;;37.40;14.18;;;;;;;;;;5053376;28;20409;-60
2021/11/10 03:46:01;;;;;;;36.67;14.02;;;;;;;;;;5053588;28;20139;-60
2021/11/10 03:48:32;;;;;;;44.53;13.95;;;;;;;;;;5053586;28;20758;-59
2021/11/10 03:51:00;;;;;;;34.20;13.23;;;;;;;;;;5057221;28;20032;-59
2021/11/10 03:53:28;;;;;;;38.55;14.60;;;;;;;;;;5057451;28;20052;-60
2021/11/10 03:55:57;;;;;;;39.22;13.48;;;;;;;;;;5056932;28;20040;-60
2021/11/10 03:58:23;;;;;;;41.05;14.15;;;;;;;;;;5025774;28;20040;-60
2021/11/10 04:00:48;;;;;;;31.00;13.00;;;;;;;;;;5053997;28;20064;-59
2021/11/10 04:03:19;;;;;;;40.83;14.35;;;;;;;;;;5041112;28;20035;-60
2021/11/10 04:05:47;;;;;;;45.88;15.63;;;;;;;;;;5052698;28;20195;-60
2021/11/10 04:08:15;;;;;;;41.95;14.00;;;;;;;;;;5054632;28;20051;-60
2021/11/10 04:10:43;;;;;;;30.90;13.77;;;;;;;;;;5061484;28;20135;-60
2021/11/10 04:13:11;;;;;;;34.10;13.93;;;;;;;;;;5054441;28;20036;-60
2021/11/10 04:15:39;;;;;;;41.38;14.77;;;;;;;;;;5057835;28;20039;-58
2021/11/10 04:18:07;;;;;;;49.13;13.95;;;;;;;;;;5055684;28;20036;-59
2021/11/10 04:20:33;;;;;;;42.80;14.82;;;;;;;;;;5056022;28;20032;-61
2021/11/10 04:22:58;;;;;;;38.47;15.30;;;;;;;;;;5055742;28;20028;-61
2021/11/10 04:25:29;;;;;;;41.03;14.02;;;;;;;;;;5057090;28;20044;-59
2021/11/10 04:27:57;;;;;;;38.95;13.45;;;;;;;;;;5055994;28;20486;-60
2021/11/10 04:30:25;;;;;;;48.00;15.25;;;;;;;;;;5041287;28;20051;-59
2021/11/10 04:32:50;;;;;;;32.20;13.75;;;;;;;;;;5053249;28;20033;-59
2021/11/10 04:35:18;;;;;;;35.15;14.50;;;;;;;;;;5036017;28;20036;-59
2021/11/10 04:37:44;;;;;;;43.60;15.48;;;;;;;;;;5061044;28;20055;-60
2021/11/10 04:40:10;;;;;;;37.40;14.93;;;;;;;;;;5053728;28;20479;-58
2021/11/10 04:42:36;;;;;;;42.28;14.55;;;;;;;;;;5070785;28;20071;-60
2021/11/10 04:45:07;;;;;;;28.35;13.98;;;;;;;;;;5051359;28;20035;-64
2021/11/10 04:47:33;;;;;;;36.22;15.10;;;;;;;;;;5053573;28;20172;-60
2021/11/10 04:49:59;;;;;;;36.65;13.55;;;;;;;;;;5059191;28;20501;-59
2021/11/10 04:52:25;;;;;;;38.97;15.60;;;;;;;;;;5043163;28;20036;-60
2021/11/10 04:54:51;;;;;;;36.55;13.73;;;;;;;;;;5051266;28;20151;-60
2021/11/10 04:57:17;;;;;;;35.05;16.00;;;;;;;;;;5052812;28;20099;-60
2021/11/10 04:59:43;;;;;;;44.13;14.63;;;;;;;;;;5052786;28;21022;-64
2021/11/10 05:04:39;;;;;;;36.63;13.25;;;;;;;;;;5053921;28;20028;-58
2021/11/10 05:07:07;;;;;;;44.13;15.43;;;;;;;;;;5056087;28;20028;-59
2021/11/10 05:09:35;;;;;;;50.80;15.93;;;;;;;;;;5039324;28;20085;-59
2021/11/10 05:12:00;;;;;;;46.65;12.95;;;;;;;;;;5053031;28;20033;-59
2021/11/10 05:14:28;;;;;;;43.28;14.65;;;;;;;;;;5051727;28;20090;-60
2021/11/10 05:16:56;;;;;;;37.42;14.85;;;;;;;;;;5073951;27;20514;-59
2021/11/10 05:19:24;;;;;;;48.88;14.50;;;;;;;;;;5056107;28;20064;-60
2021/11/10 05:21:50;;;;;;;38.15;13.02;;;;;;;;;;5056828;28;20120;-59
2021/11/10 05:24:18;;;;;;;35.10;13.55;;;;;;;;;;5060144;28;21195;-60
2021/11/10 05:26:46;;;;;;;39.10;13.57;;;;;;;;;;5047078;28;20044;-60
2021/11/10 05:29:14;;;;;;;48.28;14.45;;;;;;;;;;5040134;28;20075;-59
2021/11/10 05:31:42;;;;;;;30.58;12.45;;;;;;;;;;5045844;28;20523;-59
2021/11/10 05:34:10;;;;;;;36.50;13.25;;;;;;;;;;5041027;28;20078;-60
2021/11/10 05:36:35;;;;;;;44.80;14.63;;;;;;;;;;5064913;28;20038;-60
2021/11/10 05:39:01;;;;;;;37.38;13.98;;;;;;;;;;5038288;28;20036;-59
2021/11/10 05:41:29;;;;;;;34.15;12.27;;;;;;;;;;5042946;28;20032;-59
2021/11/10 05:43:54;;;;;;;38.60;12.35;;;;;;;;;;5045916;28;20036;-59
2021/11/10 05:46:24;;;;;;;33.33;13.85;;;;;;;;;;5058866;28;20036;-59
2021/11/10 05:48:52;;;;;;;37.58;12.30;;;;;;;;;;5057936;28;20520;-60
2021/11/10 05:51:18;;;;;;;29.38;12.63;;;;;;;;;;5057359;28;20033;-59
2021/11/10 05:53:44;;;;;;;44.22;12.75;;;;;;;;;;5056158;28;20048;-59
2021/11/10 05:56:22;;;;;;;29.90;11.40;;;;;;;;;;5056499;28;20033;-60
2021/11/10 05:58:48;;;;;;;29.63;11.63;;;;;;;;;;5063389;28;20086;-60
2021/11/10 06:01:13;;;;;;;28.30;10.95;;;;;;;;;;5057800;28;20408;-59
2021/11/10 06:03:41;;;;;;;34.42;11.00;;;;;;;;;;5057982;28;20090;-59
2021/11/10 06:06:09;;;;;;;25.92;10.43;;;;;;;;;;5058297;28;20066;-59
2021/11/10 06:08:40;;;;;;;24.55;10.25;;;;;;;;;;5056710;28;20029;-60
2021/11/10 06:11:07;;;;;;;33.38;10.50;;;;;;;;;;5039349;28;20051;-59
2021/11/10 06:13:35;;;;;;;26.63;10.57;;;;;;;;;;5057348;28;20024;-59
2021/11/10 06:16:08;;;;;;;29.48;10.20;;;;;;;;;;5054418;28;20020;-59
2021/11/10 06:18:36;;;;;;;30.98;10.77;;;;;;;;;;5055331;28;22020;-58
2021/11/10 06:21:05;;;;;;;21.52;10.75;;;;;;;;;;5053545;28;20059;-59
2021/11/10 06:23:34;;;;;;;22.95;10.05;;;;;;;;;;5058857;28;20024;-59
2021/11/10 06:25:59;;;;;;;25.77;11.18;;;;;;;;;;5043112;28;20060;-60
2021/11/10 06:28:30;;;;;;;31.55;10.02;;;;;;;;;;5058123;28;20066;-60
2021/11/10 06:31:00;;;;;;;26.48;10.60;;;;;;;;;;5040732;28;20040;-58
2021/11/10 06:33:26;;;;;;;30.00;10.80;;;;;;;;;;5053412;28;20383;-59
2021/11/10 06:35:51;;;;;;;26.55;10.65;;;;;;;;;;5044851;28;20032;-59
2021/11/10 06:38:19;;;;;;;28.60;10.70;;;;;;;;;;5059346;28;20589;-60
2021/11/10 06:40:47;;;;;;;29.13;10.98;;;;;;;;;;5042634;28;20032;-61
2021/11/10 06:43:17;;;;;;;31.10;9.98;;;;;;;;;;5058922;28;20024;-61
2021/11/10 06:45:45;;;;;;;29.65;11.70;;;;;;;;;;5054927;28;20056;-60
2021/11/10 06:48:10;;;;;;;24.20;10.93;;;;;;;;;;5059413;28;20144;-61
2021/11/10 06:50:40;;;;;;;29.35;11.70;;;;;;;;;;5058695;28;21092;-59
2021/11/10 06:53:09;;;;;;;26.65;11.90;;;;;;;;;;5046371;28;20044;-60
2021/11/10 06:55:34;;;;;;;34.38;12.65;;;;;;;;;;5062763;28;20059;-60
2021/11/10 06:58:00;;;;;;;26.48;11.73;;;;;;;;;;5056062;28;20028;-58
2021/11/10 07:00:28;;;;;;;26.40;12.35;;;;;;;;;;5038968;28;20037;-60
2021/11/10 07:02:53;;;;;;;32.97;11.77;;;;;;;;;;5059990;28;20038;-60
2021/11/10 07:05:19;;;;;;;37.65;14.43;;;;;;;;;;5059022;28;20413;-59
2021/11/10 07:07:50;;;;;;;30.63;13.15;;;;;;;;;;5057058;28;20032;-59
2021/11/10 07:10:17;;;;;;;31.77;13.32;;;;;;;;;;5056696;28;20128;-59
2021/11/10 07:12:47;;;;;;;33.35;13.70;;;;;;;;;;5059749;28;20032;-58
2021/11/10 07:15:13;;;;;;;35.13;13.43;;;;;;;;;;5058117;28;20075;-59
2021/11/10 07:17:41;;;;;;;32.10;13.50;;;;;;;;;;5039264;28;20507;-59
2021/11/10 07:20:09;;;;;;;25.88;12.25;;;;;;;;;;5057584;28;20037;-60
2021/11/10 07:22:34;;;;;;;28.05;11.95;;;;;;;;;;5057417;28;20024;-59
2021/11/10 07:25:02;;;;;;;31.90;15.02;;;;;;;;;;5057744;28;20598;-60
2021/11/10 07:27:31;;;;;;;31.67;14.10;;;;;;;;;;5032335;28;20032;-59
2021/11/10 07:30:01;;;;;;;34.30;14.00;;;;;;;;;;5062500;28;20040;-60
2021/11/10 07:32:29;;;;;;;27.92;14.45;;;;;;;;;;5057513;28;20593;-60
2021/11/10 07:34:54;;;;;;;42.97;14.48;;;;;;;;;;5062554;28;20040;-58
2021/11/10 07:37:20;;;;;;;35.30;14.30;;;;;;;;;;5059277;28;20151;-61
2021/11/10 07:39:46;;;;;;;34.05;13.98;;;;;;;;;;5056576;28;20055;-62
2021/11/10 07:42:11;;;;;;;37.35;13.15;;;;;;;;;;5062135;28;20762;-61
2021/11/10 07:44:42;;;;;;;28.33;14.18;;;;;;;;;;5053737;28;20032;-60
2021/11/10 07:47:16;;;;;;;26.67;12.73;;;;;;;;;;5042075;28;20041;-61
2021/11/10 07:49:45;;;;;;;38.05;15.00;;;;;;;;;;5043730;28;20037;-60
2021/11/10 07:52:11;;;;;;;37.38;13.70;;;;;;;;;;5056117;28;20466;-60
2021/11/10 07:54:39;;;;;;;34.63;12.90;;;;;;;;;;5055813;28;20052;-60
2021/11/10 07:57:07;;;;;;;32.05;13.98;;;;;;;;;;5058502;28;20881;-60
2021/11/10 07:59:35;;;;;;;33.72;13.68;;;;;;;;;;5054161;28;20675;-61
2021/11/10 08:02:04;;;;;;;32.17;13.32;;;;;;;;;;5044294;28;20566;-62
2021/11/10 08:04:31;;;;;;;32.17;13.55;;;;;;;;;;5056366;28;20040;-61
2021/11/10 08:07:00;;;;;;;38.03;14.63;;;;;;;;;;5063777;28;20040;-60
2021/11/10 08:09:28;;;;;;;28.83;12.52;;;;;;;;;;5057344;28;20035;-62
2021/11/10 08:11:56;;;;;;;25.77;12.02;;;;;;;;;;5057551;28;20035;-61
2021/11/10 08:14:26;;;;;;;36.70;12.38;;;;;;;;;;5056588;28;20060;-61
2021/11/10 08:16:54;;;;;;;28.73;12.82;;;;;;;;;;5058873;28;20163;-62
2021/11/10 08:19:22;;;;;;;28.70;12.93;;;;;;;;;;5056688;28;20028;-60
2021/11/10 08:21:51;;;;;;;28.80;12.82;;;;;;;;;;5058302;28;20025;-60
2021/11/10 08:24:19;;;;;;;32.72;12.95;;;;;;;;;;5056987;28;20419;-59
2021/11/10 08:26:45;;;;;;;27.05;11.30;;;;;;;;;;5064621;28;20032;-61
2021/11/10 08:29:12;;;;;;;22.55;11.10;;;;;;;;;;5053145;28;20040;-61
2021/11/10 08:31:40;;;;;;;26.20;11.05;;;;;;;;;;5047581;28;20044;-61
2021/11/10 08:34:05;;;;;;;21.92;10.45;;;;;;;;;;5053013;28;20047;-59
2021/11/10 08:36:33;;;;;;;29.83;11.90;;;;;;;;;;5055207;28;20040;-60
2021/11/10 08:39:03;;;;;;;33.35;11.43;;;;;;;;;;5053204;28;20041;-60
2021/11/10 08:41:29;;;;;;;18.05;9.43;;;;;;;;;;5056722;28;20036;-59
2021/11/10 08:43:58;;;;;;;25.13;9.32;;;;;;;;;;5050432;28;20052;-60
2021/11/10 08:46:29;;;;;;;18.83;8.68;;;;;;;;;;5040219;28;20174;-60
2021/11/10 08:48:57;;;;;;;27.83;10.13;;;;;;;;;;5055425;28;20151;-60
2021/11/10 08:51:24;;;;;;;25.65;9.05;;;;;;;;;;5054147;28;20028;-60
2021/11/10 08:53:54;;;;;;;21.50;8.98;;;;;;;;;;5052982;28;20756;-60
2021/11/10 08:56:24;;;;;;;19.77;8.13;;;;;;;;;;5052807;28;20024;-60
2021/11/10 08:58:54;;;;;;;17.20;8.80;;;;;;;;;;5053044;28;20032;-60
2021/11/10 09:01:22;;;;;;;18.98;7.40;;;;;;;;;;5028365;28;21053;-59
2021/11/10 09:03:50;;;;;;;19.75;8.32;;;;;;;;;;5055216;28;20038;-60
2021/11/10 09:06:15;;;;;;;19.60;8.13;;;;;;;;;;5055991;28;20063;-59
2021/11/10 09:08:41;;;;;;;17.05;7.43;;;;;;;;;;5051285;28;20040;-59
2021/11/10 09:11:06;;;;;;;21.25;8.40;;;;;;;;;;5052412;28;20038;-59
2021/11/10 09:13:34;;;;;;;24.05;7.85;;;;;;;;;;5051434;28;20146;-59
2021/11/10 09:16:05;;;;;;;13.98;7.70;;;;;;;;;;5050890;28;20036;-59
2021/11/10 09:18:30;;;;;;;14.45;7.07;;;;;;;;;;5056865;28;20044;-59
2021/11/10 09:20:55;;;;;;;22.42;8.00;;;;;;;;;;5052985;28;20055;-59
2021/11/10 09:23:21;;;;;;;20.08;7.60;;;;;;;;;;5053593;28;20075;-59
2021/11/10 09:25:50;;;;;;;18.00;7.18;;;;;;;;;;5054085;28;20040;-59
2021/11/10 09:28:24;;;;;;;24.65;7.85;;;;;;;;;;5053526;28;20090;-60
2021/11/10 09:30:54;;;;;;;17.52;6.78;;;;;;;;;;5049478;28;20032;-60
2021/11/10 09:33:22;;;;;;;18.48;6.80;;;;;;;;;;5050822;28;20061;-60
2021/11/10 09:35:52;;;;;;;11.68;6.30;;;;;;;;;;5041637;28;20111;-60
2021/11/10 09:38:20;;;;;;;20.73;6.40;;;;;;;;;;5054696;28;20108;-60
2021/11/10 09:40:47;;;;;;;22.63;7.57;;;;;;;;;;5058630;28;20111;-60
2021/11/10 09:43:15;;;;;;;16.73;6.70;;;;;;;;;;5051715;28;20474;-60
2021/11/10 09:45:44;;;;;;;21.35;7.20;;;;;;;;;;5048071;28;20042;-60
2021/11/10 09:48:13;;;;;;;17.90;6.70;;;;;;;;;;5052993;28;20107;-60
2021/11/10 09:50:48;;;;;;;22.05;6.70;;;;;;;;;;5057282;28;20105;-60
2021/11/10 09:53:14;;;;;;;17.98;5.75;;;;;;;;;;5058664;28;20040;-60
2021/11/10 09:55:39;;;;;;;15.07;6.05;;;;;;;;;;5052181;28;20075;-60
2021/11/10 09:58:07;;;;;;;19.02;6.95;;;;;;;;;;5040815;28;20036;-60
2021/11/10 10:00:45;;;;;;;15.77;6.82;;;;;;;;;;5054530;28;22215;-60
2021/11/10 10:03:13;;;;;;;18.45;6.63;;;;;;;;;;5058069;28;20036;-59
2021/11/10 10:05:38;;;;;;;21.13;6.80;;;;;;;;;;5042989;28;20098;-59
2021/11/10 10:08:09;;;;;;;15.70;7.03;;;;;;;;;;5057117;28;20040;-60
2021/11/10 10:10:39;;;;;;;15.23;6.53;;;;;;;;;;5044095;28;21411;-59
2021/11/10 10:13:08;;;;;;;18.23;6.78;;;;;;;;;;5056654;28;20032;-59
2021/11/10 10:15:35;;;;;;;14.90;6.10;;;;;;;;;;5041269;28;20176;-59
2021/11/10 10:18:02;;;;;;;22.88;7.00;;;;;;;;;;5059603;28;20028;-59
2021/11/10 10:20:37;;;;;;;17.92;6.45;;;;;;;;;;5055219;28;20712;-60
2021/11/10 10:23:17;;;;;;;22.50;6.63;;;;;;;;;;5057735;28;20032;-61
2021/11/10 10:25:49;;;;;;;16.98;7.28;;;;;;;;;;5057914;28;20029;-60
2021/11/10 10:28:18;;;;;;;15.52;5.78;;;;;;;;;;5057696;28;20657;-60
2021/11/10 10:30:59;;;;;;;16.85;6.78;;;;;;;;;;5057964;28;20089;-59
2021/11/10 10:33:27;;;;;;;25.20;7.10;;;;;;;;;;5056864;28;20051;-61
2021/11/10 10:35:55;;;;;;;17.48;7.07;;;;;;;;;;5055642;28;20098;-60
2021/11/10 10:38:48;;;;;;;22.08;6.50;;;;;;;;;;5053370;28;20495;-59
2021/11/10 10:41:20;;;;;;;18.42;6.20;;;;;;;;;;5054411;28;20118;-58
2021/11/10 10:43:55;;;;;;;22.58;6.90;;;;;;;;;;5054963;28;20036;-59
2021/11/10 10:46:25;;;;;;;;;;;;;;;;;;5053440;28;20702;-60
2021/11/10 10:49:09;;;;;;;16.75;6.55;;;;;;;;;;5056321;28;20386;-60
2021/11/10 10:51:37;;;;;;;16.83;6.20;;;;;;;;;;5058916;28;20059;-59
2021/11/10 10:54:05;;;;;;;19.65;6.50;;;;;;;;;;5059466;28;20402;-60
2021/11/10 10:56:38;;;;;;;12.52;6.68;;;;;;;;;;5054914;28;20024;-60
2021/11/10 10:59:06;;;;;;;19.95;6.75;;;;;;;;;;5070258;28;20077;-59
2021/11/10 11:01:36;;;;;;;17.88;6.15;;;;;;;;;;5052358;28;20151;-61
2021/11/10 11:04:05;;;;;;;20.02;6.95;;;;;;;;;;5056350;28;20072;-59
2021/11/10 11:06:37;;;;;;;27.25;7.00;;;;;;;;;;5056456;28;20035;-59
2021/11/10 11:09:10;;;;;;;14.00;6.07;;;;;;;;;;5052802;28;20039;-59
2021/11/10 11:11:45;;;;;;;17.13;7.07;;;;;;;;;;5055011;28;20039;-60
2021/11/10 11:14:54;;;;;;;12.48;6.65;;;;;;;;;;5053437;28;20033;-58
2021/11/10 11:17:09;;;;;;;14.02;6.97;;;;;;;;;;5059945;28;20119;-60
2021/11/10 11:19:37;;;;;;;19.42;6.72;;;;;;;;;;5061482;28;20298;-60
2021/11/10 11:22:05;;;;;;;15.95;6.43;;;;;;;;;;5026111;28;20055;-60
2021/11/10 11:24:37;;;;;;;14.32;6.70;;;;;;;;;;5053056;28;20039;-59
2021/11/10 11:27:12;;;;;;;22.67;7.22;;;;;;;;;;5053890;28;20058;-60
2021/11/10 11:29:40;;;;;;;26.80;7.80;;;;;;;;;;5051124;28;20716;-60
2021/11/10 11:32:32;;;;;;;19.40;7.75;;;;;;;;;;5060350;28;20103;-60
2021/11/10 11:35:01;;;;;;;17.70;7.68;;;;;;;;;;5055690;28;20059;-60
2021/11/10 11:37:29;;;;;;;22.20;6.85;;;;;;;;;;5052471;28;20028;-59
2021/11/10 11:39:58;;;;;;;17.15;6.75;;;;;;;;;;5053282;28;20056;-61
2021/11/10 11:42:26;;;;;;;15.65;7.18;;;;;;;;;;5050323;28;20105;-60
2021/11/10 11:44:56;;;;;;;17.73;7.03;;;;;;;;;;5058226;28;20090;-60
2021/11/10 11:47:24;;;;;;;17.25;7.07;;;;;;;;;;5053885;28;20047;-59
2021/11/10 11:49:52;;;;;;;16.02;6.78;;;;;;;;;;5051333;28;20070;-60
2021/11/10 11:52:19;;;;;;;17.20;7.32;;;;;;;;;;5053965;28;20048;-59
2021/11/10 11:54:50;;;;;;;16.90;7.05;;;;;;;;;;5059458;28;20379;-59
2021/11/10 11:57:22;;;;;;;21.98;7.80;;;;;;;;;;5048781;28;20043;-60
2021/11/10 11:59:53;;;;;;;14.90;6.93;;;;;;;;;;5051506;28;20643;-61
2021/11/10 12:02:19;;;;;;;19.42;7.22;;;;;;;;;;5053823;28;20041;-59
2021/11/10 12:04:45;;;;;;;21.45;7.65;;;;;;;;;;5049495;28;20033;-59
2021/11/10 12:07:13;;;;;;;21.45;6.80;;;;;;;;;;5051438;28;20075;-61
2021/11/10 12:09:38;;;;;;;20.25;6.78;;;;;;;;;;5051506;28;20147;-59
2021/11/10 12:12:09;;;;;;;16.33;7.15;;;;;;;;;;5060031;28;20051;-60
2021/11/10 12:14:37;;;;;;;23.35;7.65;;;;;;;;;;5059634;28;20092;-60
2021/11/10 12:17:11;;;;;;;23.50;7.68;;;;;;;;;;5038502;28;20060;-59
2021/11/10 12:19:42;;;;;;;24.63;7.00;;;;;;;;;;5069522;28;20024;-60
2021/11/10 12:22:11;;;;;;;18.27;7.07;;;;;;;;;;5053123;28;20036;-61
2021/11/10 12:24:38;;;;;;;20.05;7.15;;;;;;;;;;5052747;28;20040;-60
2021/11/10 12:27:07;;;;;;;21.55;7.55;;;;;;;;;;5050185;28;20035;-60
2021/11/10 12:29:44;;;;;;;22.42;7.60;;;;;;;;;;5052538;28;20147;-59
2021/11/10 12:32:12;;;;;;;20.17;7.38;;;;;;;;;;5053578;28;20036;-60
2021/11/10 12:34:38;;;;;;;20.13;7.20;;;;;;;;;;5051514;28;20032;-60
2021/11/10 12:37:04;;;;;;;20.67;8.18;;;;;;;;;;5052071;28;20066;-60
2021/11/10 12:39:39;;;;;;;25.73;8.20;;;;;;;;;;5052506;28;20925;-61
2021/11/10 12:42:04;;;;;;;23.25;7.65;;;;;;;;;;5053080;28;20029;-60
2021/11/10 12:44:32;;;;;;;22.48;7.60;;;;;;;;;;5053296;28;20032;-60
2021/11/10 12:46:58;;;;;;;20.67;7.85;;;;;;;;;;5055319;28;20032;-60
2021/11/10 12:49:27;;;;;;;23.45;7.97;;;;;;;;;;5068708;28;20032;-60
2021/11/10 12:52:13;;;;;;;24.08;8.90;;;;;;;;;;5054831;28;20118;-59
2021/11/10 12:54:44;;;;;;;27.38;8.73;;;;;;;;;;5051805;28;20051;-60
2021/11/10 12:57:10;;;;;;;31.10;8.13;;;;;;;;;;5055598;28;20036;-60
2021/11/10 12:59:39;;;;;;;25.77;8.75;;;;;;;;;;5053255;28;20039;-60
2021/11/10 13:02:13;;;;;;;16.25;6.93;;;;;;;;;;5055093;28;20086;-59
2021/11/10 13:04:45;;;;;;;19.33;7.30;;;;;;;;;;5053863;28;20036;-60
2021/11/10 13:07:18;;;;;;;22.50;7.78;;;;;;;;;;5050214;28;21233;-60
2021/11/10 13:09:49;;;;;;;19.42;7.57;;;;;;;;;;5056975;28;20067;-61
2021/11/10 13:12:18;;;;;;;19.80;7.53;;;;;;;;;;5043816;28;20043;-61
2021/11/10 13:14:54;;;;;;;21.30;7.82;;;;;;;;;;5051772;28;20045;-61
2021/11/10 13:17:26;;;;;;;24.63;7.75;;;;;;;;;;5052208;28;20042;-60
2021/11/10 13:20:00;;;;;;;22.58;7.95;;;;;;;;;;5053216;28;20102;-61
2021/11/10 13:22:36;;;;;;;26.05;7.57;;;;;;;;;;5054497;28;20032;-60
2021/11/10 13:25:11;;;;;;;25.75;6.47;;;;;;;;;;5029907;28;20044;-61
2021/11/10 13:27:36;;;;;;;;;;;;;;;;;;5051614;28;20036;-60
2021/11/10 13:30:06;;;;;;;18.65;7.72;;;;;;;;;;5040386;28;19916;-61
2021/11/10 13:32:37;;;;;;;18.95;7.13;;;;;;;;;;5038801;28;20047;-59
2021/11/10 13:35:05;;;;;;;24.27;7.75;;;;;;;;;;5054431;28;20124;-60
2021/11/10 13:37:46;;;;;;;24.70;7.97;;;;;;;;;;5054314;28;20712;-60
2021/11/10 13:40:12;;;;;;;23.33;7.25;;;;;;;;;;5054959;28;20028;-60
2021/11/10 13:42:46;;;;;;;26.63;8.43;;;;;;;;;;5056484;28;20032;-60
2021/11/10 13:45:17;;;;;;;24.25;8.63;;;;;;;;;;5052649;28;20070;-60
2021/11/10 13:47:55;;;;;;;26.20;8.15;;;;;;;;;;5058910;28;20028;-60
2021/11/10 13:50:24;;;;;;;24.13;8.05;;;;;;;;;;5043729;28;20029;-60
2021/11/10 13:52:49;;;;;;;24.05;8.38;;;;;;;;;;5043242;28;20031;-60
2021/11/10 13:55:15;;;;;;;32.42;8.82;;;;;;;;;;5055653;28;20094;-61
2021/11/10 13:57:43;;;;;;;20.05;8.00;;;;;;;;;;5057362;28;20032;-60
2021/11/10 14:00:17;;;;;;;27.65;8.38;;;;;;;;;;5053452;28;20020;-61
2021/11/10 14:02:44;;;;;;;21.27;8.60;;;;;;;;;;5056126;28;20061;-60
2021/11/10 14:05:12;;;;;;;30.63;10.00;;;;;;;;;;5055831;28;20031;-60
2021/11/10 14:07:40;;;;;;;21.83;8.10;;;;;;;;;;5060609;28;20723;-61
2021/11/10 14:10:13;;;;;;;27.00;9.23;;;;;;;;;;5062080;28;20994;-61
2021/11/10 14:12:50;;;;;;;16.70;7.93;;;;;;;;;;5058568;28;20131;-62
2021/11/10 14:15:30;;;;;;;28.15;9.20;;;;;;;;;;5061653;28;20530;-60
2021/11/10 14:17:57;;;;;;;28.95;8.45;;;;;;;;;;5059479;28;20035;-61
2021/11/10 14:20:29;;;;;;;19.58;8.95;;;;;;;;;;5041662;28;20118;-61
2021/11/10 14:22:57;;;;;;;26.10;9.38;;;;;;;;;;5056147;28;20957;-62
2021/11/10 14:25:29;;;;;;;17.90;7.70;;;;;;;;;;5053076;28;20036;-62
2021/11/10 14:27:56;;;;;;;29.15;9.18;;;;;;;;;;5055145;28;20481;-61
2021/11/10 14:30:28;;;;;;;28.60;8.75;;;;;;;;;;5044457;28;20029;-60
2021/11/10 14:32:55;;;;;;;29.02;10.25;;;;;;;;;;5057357;28;21320;-61
2021/11/10 14:35:25;;;;;;;28.95;10.52;;;;;;;;;;5057897;28;20105;-61